Barium Springs, North Carolina
Current Conditions -  °F | °C
As of 2:35 AM on Thursday 23 Oct 2014 (Local Time) from KSVH Reporting Station
Clear Clear  
Wind Chill: 41°   Ceiling: Unl
Heat Index: 44°   Visibility: 10mi
Dew Point: 38°   Wind: 5mph
Humidity: 82%   Direction: 280°W
Pressure: 30.07"   Gusts: NA
Location:  35.72°N, 80.9°W
Report Text: KSVH 230635Z AUTO 28004KT 10SM CLR 07/04 A3007 RMK AO2 T00650036
Loading
Personal Weather Stations






























Interactive Weather Map
Tropical Storm Tracking
New forecast layout! Learn more

10-Day Weather Forecast

Advertisements
Track Severe Weather on mobile